Time;durP1;ratioP1;P1;durP2;ratioP2;P2;SDS_P1;SDS_P2;PMS_P1;PMS_P2;Temp;Humidity;BMP_temperature;BMP_pressure;BME280_temperature;BME280_humidity;BME280_pressure;Samples;Min_cycle;Max_cycle;Signal;HPM_P1;HPM_P2
2023/04/20 00:01:53;;;;;;;25.50;11.70;;;;;;;9.16;71.49;99157.06;105154;1256;99265;-73
2023/04/20 00:04:21;;;;;;;26.00;11.90;;;;;;;9.10;71.43;99155.36;105349;1264;98447;-73
2023/04/20 00:06:50;;;;;;;22.80;11.30;;;;;;;9.03;71.42;99163.02;105362;1251;111210;-74
2023/04/20 00:09:18;;;;;;;25.60;12.10;;;;;;;8.95;71.37;99163.00;105332;1273;102423;-74
2023/04/20 00:11:46;;;;;;;26.20;12.60;;;;;;;8.87;71.46;99159.83;105387;1263;106310;-73
2023/04/20 00:14:14;;;;;;;23.20;11.40;;;;;;;8.80;71.48;99160.44;105287;1255;98268;-80
2023/04/20 00:16:42;;;;;;;25.80;12.10;;;;;;;8.72;71.41;99160.25;105157;1256;99136;-74
2023/04/20 00:19:10;;;;;;;24.60;12.60;;;;;;;8.61;71.36;99158.59;105317;1257;111243;-73
2023/04/20 00:21:38;;;;;;;27.60;14.40;;;;;;;8.54;71.51;99153.80;105400;1256;101504;-73
2023/04/20 00:24:06;;;;;;;27.10;14.40;;;;;;;8.51;71.47;99150.29;105340;1267;107134;-73
2023/04/20 00:26:34;;;;;;;29.50;15.00;;;;;;;8.46;71.48;99147.86;105365;1263;98051;-72
2023/04/20 00:29:02;;;;;;;28.20;13.60;;;;;;;8.41;71.61;99144.63;105591;1256;98433;-74
2023/04/20 00:31:31;;;;;;;28.20;14.50;;;;;;;8.38;71.52;99140.93;105367;1256;111042;-74
2023/04/20 00:33:59;;;;;;;26.50;13.90;;;;;;;8.36;71.59;99138.02;105384;1251;102217;-77
2023/04/20 00:36:26;;;;;;;30.40;14.90;;;;;;;8.34;71.62;99144.86;105377;1266;107647;-73
2023/04/20 00:38:54;;;;;;;25.90;14.30;;;;;;;8.32;71.58;99145.91;105146;1251;97943;-74
2023/04/20 00:41:22;;;;;;;28.30;14.80;;;;;;;8.30;71.50;99144.77;105145;1254;99253;-74
2023/04/20 00:43:51;;;;;;;29.20;14.20;;;;;;;8.28;71.68;99144.21;105349;1255;110821;-74
2023/04/20 00:46:20;;;;;;;26.50;13.30;;;;;;;8.27;71.67;99144.81;105407;1266;102481;-74
2023/04/20 00:48:52;;;;;;;28.30;13.90;;;;;;;8.23;71.51;99149.61;105260;1266;107715;-74
2023/04/20 00:51:21;;;;;;;29.90;13.60;;;;;;;8.22;71.59;99150.59;105298;1264;98644;-74
2023/04/20 00:53:50;;;;;;;31.90;15.00;;;;;;;8.20;71.49;99151.77;105291;1256;99847;-73
2023/04/20 00:56:18;;;;;;;24.80;11.80;;;;;;;8.18;71.50;99149.95;105447;1261;110859;-73
2023/04/20 00:58:46;;;;;;;28.20;12.90;;;;;;;8.15;71.62;99150.97;105320;1264;101952;-72
2023/04/20 01:01:16;;;;;;;26.20;13.20;;;;;;;8.14;71.62;99148.95;105445;1257;107398;-73
2023/04/20 01:03:45;;;;;;;24.90;12.00;;;;;;;8.12;71.70;99144.30;105333;1252;99151;-74
2023/04/20 01:06:13;;;;;;;24.80;11.40;;;;;;;8.12;71.74;99144.66;105336;1251;98457;-73
2023/04/20 01:08:46;;;;;;;28.20;12.50;;;;;;;8.11;71.61;99137.31;105311;1256;111273;-75
2023/04/20 01:11:14;;;;;;;26.30;12.80;;;;;;;8.10;71.57;99138.09;105255;1264;102173;-78
2023/04/20 01:13:43;;;;;;;29.70;12.50;;;;;;;8.08;71.73;99140.82;105379;1257;107405;-73
2023/04/20 01:16:11;;;;;;;27.60;13.60;;;;;;;8.08;71.68;99136.62;105255;1251;99157;-73
2023/04/20 01:18:45;;;;;;;29.90;13.90;;;;;;;8.06;71.75;99139.20;105427;1257;98460;-73
2023/04/20 01:21:15;;;;;;;29.50;14.80;;;;;;;8.04;71.72;99138.41;105307;1272;110956;-81
2023/04/20 01:23:44;;;;;;;26.30;12.50;;;;;;;8.02;71.73;99136.41;105280;1267;101850;-73
2023/04/20 01:26:14;;;;;;;30.30;13.50;;;;;;;8.01;71.85;99135.58;105277;1251;107623;-73
2023/04/20 01:28:43;;;;;;;31.00;14.30;;;;;;;7.98;71.76;99132.95;105239;1258;98077;-73
2023/04/20 01:31:12;;;;;;;32.40;13.90;;;;;;;7.97;71.88;99132.15;105270;1251;99170;-72
2023/04/20 01:33:40;;;;;;;27.00;14.20;;;;;;;7.94;71.75;99134.62;105227;1255;111335;-81
2023/04/20 01:36:08;;;;;;;27.10;14.10;;;;;;;7.92;71.72;99134.91;105107;1258;102220;-73
2023/04/20 01:38:36;;;;;;;30.20;14.50;;;;;;;7.89;71.88;99130.52;105205;1266;108926;-73
2023/04/20 01:41:07;;;;;;;28.00;12.00;;;;;;;7.87;71.72;99133.05;105330;1256;98024;-73
2023/04/20 01:43:36;;;;;;;23.90;12.30;;;;;;;7.85;72.06;99130.89;105174;1257;99541;-73
2023/04/20 01:46:05;;;;;;;26.60;12.40;;;;;;;7.84;71.96;99132.88;105377;1267;110960;-73
2023/04/20 01:48:33;;;;;;;24.30;11.50;;;;;;;7.85;71.91;99128.95;105317;1257;102369;-74
2023/04/20 01:51:01;;;;;;;22.00;10.80;;;;;;;7.86;71.96;99132.96;105350;1261;107395;-72
2023/04/20 01:53:28;;;;;;;24.50;11.40;;;;;;;7.87;71.97;99131.70;105269;1255;97937;-72
2023/04/20 01:55:58;;;;;;;23.60;12.20;;;;;;;7.87;71.90;99132.04;105118;1255;99148;-74
2023/04/20 01:58:26;;;;;;;24.90;11.30;;;;;;;7.87;71.90;99133.10;105239;1255;111272;-79
2023/04/20 02:00:53;;;;;;;23.00;11.80;;;;;;;7.87;71.96;99134.51;105339;1255;102276;-78
2023/04/20 02:03:21;;;;;;;23.80;11.60;;;;;;;7.85;72.01;99133.21;105184;1257;105731;-73
2023/04/20 02:05:49;;;;;;;25.50;12.90;;;;;;;7.84;72.02;99136.45;105351;1264;98907;-74
2023/04/20 02:08:17;;;;;;;22.90;12.10;;;;;;;7.83;72.00;99138.45;105408;1251;98624;-73
2023/04/20 02:10:45;;;;;;;22.10;11.40;;;;;;;7.85;72.18;99138.88;105241;1257;111212;-73
2023/04/20 02:13:13;;;;;;;24.10;12.10;;;;;;;7.85;72.06;99136.38;105326;1257;102243;-74
2023/04/20 02:15:40;;;;;;;22.80;11.10;;;;;;;7.85;71.95;99136.89;105363;1258;108260;-73
2023/04/20 02:18:08;;;;;;;27.10;12.70;;;;;;;7.85;72.03;99140.81;105313;1254;97960;-74
2023/04/20 02:20:36;;;;;;;24.30;11.10;;;;;;;7.83;72.14;99144.23;105358;1255;99902;-74
2023/04/20 02:23:04;;;;;;;24.50;10.80;;;;;;;7.83;72.09;99144.63;105364;1255;110878;-73
2023/04/20 02:25:32;;;;;;;21.90;10.10;;;;;;;7.83;72.12;99148.13;105402;1251;102388;-73
2023/04/20 02:28:00;;;;;;;21.70;11.20;;;;;;;7.84;72.24;99140.84;105265;1264;108804;-74
2023/04/20 02:30:28;;;;;;;24.80;9.90;;;;;;;7.86;72.06;99142.52;105359;1254;98769;-75
2023/04/20 02:32:56;;;;;;;21.60;10.30;;;;;;;7.87;72.15;99141.74;105359;1263;99734;-79
2023/04/20 02:35:24;;;;;;;23.50;11.90;;;;;;;7.88;72.15;99140.64;105174;1256;110703;-73
2023/04/20 02:37:53;;;;;;;22.50;10.60;;;;;;;7.86;72.29;99142.83;105342;1258;102200;-73
2023/04/20 02:40:20;;;;;;;21.70;9.30;;;;;;;7.84;72.41;99145.98;105163;1257;107366;-73
2023/04/20 02:42:48;;;;;;;20.90;8.70;;;;;;;7.84;72.31;99147.40;105303;1254;99278;-74
2023/04/20 02:45:16;;;;;;;22.90;10.10;;;;;;;7.83;72.33;99149.73;105332;1256;98493;-74
2023/04/20 02:47:44;;;;;;;22.00;9.90;;;;;;;7.82;72.21;99149.30;105457;1256;111299;-73
2023/04/20 02:50:12;;;;;;;23.70;10.30;;;;;;;7.82;72.38;99154.26;105320;1257;102248;-74
2023/04/20 02:52:41;;;;;;;24.20;10.00;;;;;;;7.81;72.32;99153.73;105104;1268;107730;-76
2023/04/20 02:55:08;;;;;;;22.50;10.00;;;;;;;7.80;72.33;99149.77;105181;1255;97959;-73
2023/04/20 02:57:36;;;;;;;23.00;10.40;;;;;;;7.79;72.48;99155.23;105424;1256;99272;-73
2023/04/20 03:00:07;;;;;;;24.10;10.90;;;;;;;7.79;72.60;99153.70;105715;1257;110680;-74
2023/04/20 03:02:36;;;;;;;22.70;10.30;;;;;;;7.81;72.41;99158.50;105391;1266;102226;-75
2023/04/20 03:05:06;;;;;;;23.00;10.30;;;;;;;7.83;72.53;99156.80;105472;1251;107208;-78
2023/04/20 03:07:33;;;;;;;26.30;11.60;;;;;;;7.84;72.50;99158.13;105463;1253;97894;-73
2023/04/20 03:10:01;;;;;;;25.00;11.00;;;;;;;7.85;72.41;99154.71;105555;1257;99253;-73
2023/04/20 03:12:31;;;;;;;23.20;11.00;;;;;;;7.89;72.62;99156.06;105501;1256;111786;-73
2023/04/20 03:14:59;;;;;;;23.80;10.10;;;;;;;7.92;72.55;99155.75;105492;1254;102083;-73
2023/04/20 03:17:27;;;;;;;23.60;10.50;;;;;;;7.94;72.56;99155.25;105383;1251;199367;-73
2023/04/20 03:19:56;;;;;;;22.90;10.00;;;;;;;7.97;72.63;99156.50;105324;1256;97959;-74
2023/04/20 03:22:24;;;;;;;26.30;10.10;;;;;;;7.99;72.66;99165.36;105519;1251;98451;-74
2023/04/20 03:24:52;;;;;;;22.70;10.60;;;;;;;8.00;72.46;99166.38;105267;1264;111248;-74
2023/04/20 03:27:20;;;;;;;23.60;10.40;;;;;;;7.99;72.60;99163.80;105386;1257;102212;-73
2023/04/20 03:29:48;;;;;;;22.80;10.50;;;;;;;7.97;72.53;99157.74;105389;1258;109031;-73
2023/04/20 03:32:16;;;;;;;26.00;10.80;;;;;;;7.94;72.59;99160.77;105165;1257;98001;-75
2023/04/20 03:34:44;;;;;;;24.50;10.40;;;;;;;7.90;72.39;99164.70;105166;1251;98573;-74
2023/04/20 03:37:13;;;;;;;22.80;10.40;;;;;;;7.89;72.63;99167.59;105454;1256;111743;-77
2023/04/20 03:39:41;;;;;;;24.50;11.90;;;;;;;7.88;72.47;99166.41;105405;1251;102259;-73
2023/04/20 03:42:09;;;;;;;23.50;10.80;;;;;;;7.86;72.70;99167.37;105101;1257;107627;-73
2023/04/20 03:44:37;;;;;;;23.60;10.90;;;;;;;7.86;72.66;99166.51;105428;1267;98191;-76
2023/04/20 03:47:05;;;;;;;22.90;10.00;;;;;;;7.87;72.82;99166.13;105564;1256;99272;-73
2023/04/20 03:49:33;;;;;;;23.60;10.70;;;;;;;7.87;72.87;99162.90;105331;1256;111594;-81
2023/04/20 03:52:01;;;;;;;23.60;11.70;;;;;;;7.88;72.78;99167.77;105324;1257;102191;-72
2023/04/20 03:54:29;;;;;;;22.80;11.80;;;;;;;7.89;72.80;99170.56;105167;1263;107606;-72
2023/04/20 03:56:57;;;;;;;24.10;12.40;;;;;;;7.91;72.89;99169.93;105087;1256;98002;-76
2023/04/20 03:59:25;;;;;;;24.50;12.00;;;;;;;7.91;72.76;99173.80;105203;1256;98386;-73
2023/04/20 04:01:53;;;;;;;35.30;20.90;;;;;;;7.94;72.79;99175.74;105171;1251;111068;-76
2023/04/20 04:04:22;;;;;;;37.60;21.60;;;;;;;7.98;73.08;99179.54;105445;1256;101039;-75
2023/04/20 04:06:50;;;;;;;28.40;15.10;;;;;;;8.03;73.03;99179.61;105451;1251;107384;-75
2023/04/20 04:09:18;;;;;;;24.40;12.90;;;;;;;8.07;72.96;99177.63;105410;1254;99278;-72
2023/04/20 04:11:46;;;;;;;25.90;12.60;;;;;;;8.09;72.99;99179.27;105412;1258;98440;-73
2023/04/20 04:14:14;;;;;;;24.70;12.00;;;;;;;8.11;72.87;99176.69;105536;1256;111234;-74
2023/04/20 04:16:42;;;;;;;23.80;11.20;;;;;;;8.13;72.89;99179.40;105152;1258;101970;-73
2023/04/20 04:19:10;;;;;;;24.10;11.80;;;;;;;8.12;73.00;99175.90;105455;1257;106853;-73
2023/04/20 04:21:38;;;;;;;24.70;11.50;;;;;;;8.13;73.00;99172.17;105340;1252;98046;-73
2023/04/20 04:24:06;;;;;;;26.20;11.90;;;;;;;8.12;73.01;99172.57;105593;1255;98351;-74
2023/04/20 04:26:35;;;;;;;24.90;11.00;;;;;;;8.13;73.00;99172.52;108752;1251;110360;-74
2023/04/20 04:29:03;;;;;;;22.20;11.30;;;;;;;8.14;72.96;99177.37;107039;1251;101431;-76
2023/04/20 04:31:31;;;;;;;22.70;10.80;;;;;;;8.15;73.00;99182.27;105671;1256;108941;-81
2023/04/20 04:34:00;;;;;;;25.30;11.40;;;;;;;8.19;73.05;99183.24;105636;1258;98027;-74
2023/04/20 04:36:28;;;;;;;22.50;11.10;;;;;;;8.25;73.13;99185.92;105448;1256;97877;-70
2023/04/20 04:38:55;;;;;;;22.70;11.30;;;;;;;8.30;73.18;99187.34;105315;1268;111361;-70
2023/04/20 04:41:24;;;;;;;23.80;11.20;;;;;;;8.35;73.03;99187.59;105367;1253;102470;-71
2023/04/20 04:43:52;;;;;;;26.50;12.40;;;;;;;8.39;73.16;99189.99;105386;1256;107204;-71
2023/04/20 04:46:20;;;;;;;26.20;15.00;;;;;;;8.43;73.10;99192.77;105281;1254;97944;-71
2023/04/20 04:48:49;;;;;;;25.50;13.00;;;;;;;8.46;73.09;99196.08;105361;1256;98878;-72
2023/04/20 04:51:16;;;;;;;25.60;13.00;;;;;;;8.49;73.17;99197.54;105335;1256;110527;-71
2023/04/20 04:53:46;;;;;;;26.00;12.90;;;;;;;8.54;73.17;99198.86;105390;1256;102161;-70
2023/04/20 04:56:14;;;;;;;24.30;11.70;;;;;;;8.58;73.19;99197.02;105294;1256;107222;-70
2023/04/20 04:58:42;;;;;;;24.90;12.60;;;;;;;8.60;73.22;99197.90;105103;1262;98022;-71
2023/04/20 05:01:11;;;;;;;25.10;12.60;;;;;;;8.62;73.23;99200.08;105176;1267;98446;-71
2023/04/20 05:03:39;;;;;;;26.30;12.70;;;;;;;8.64;73.29;99201.72;105335;1250;112104;-71
2023/04/20 05:06:07;;;;;;;25.80;12.60;;;;;;;8.63;73.26;99199.65;105286;1264;102263;-71
2023/04/20 05:08:35;;;;;;;30.40;16.40;;;;;;;8.64;73.29;99202.97;105114;1258;108884;-70
2023/04/20 05:11:03;;;;;;;29.10;16.90;;;;;;;8.70;73.35;99201.39;105352;1255;97937;-73
2023/04/20 05:13:31;;;;;;;26.60;14.70;;;;;;;8.73;73.35;99204.55;105396;1267;98380;-75
2023/04/20 05:15:59;;;;;;;27.20;13.40;;;;;;;8.75;73.24;99202.66;105114;1267;111270;-72
2023/04/20 05:18:28;;;;;;;26.40;13.20;;;;;;;8.78;73.41;99201.02;105486;1256;102279;-74
2023/04/20 05:20:56;;;;;;;26.00;12.80;;;;;;;8.82;73.35;99207.88;105685;1256;107364;-73
2023/04/20 05:23:24;;;;;;;26.60;13.40;;;;;;;8.83;73.31;99212.98;105398;1254;98079;-73
2023/04/20 05:25:51;;;;;;;23.50;11.70;;;;;;;8.85;73.31;99217.05;105192;1256;98534;-80
2023/04/20 05:28:20;;;;;;;26.40;14.40;;;;;;;8.89;73.41;99217.00;105291;1254;110737;-75
2023/04/20 05:30:48;;;;;;;27.00;12.40;;;;;;;8.90;73.33;99220.46;105400;1256;102376;-73
2023/04/20 05:33:16;;;;;;;25.90;11.80;;;;;;;8.92;73.38;99226.36;105183;1257;107109;-74
2023/04/20 05:35:44;;;;;;;32.40;23.20;;;;;;;8.92;73.31;99230.08;105263;1256;97938;-72
2023/04/20 05:38:12;;;;;;;24.90;13.10;;;;;;;8.97;73.46;99230.13;105549;1251;98466;-74
2023/04/20 05:40:39;;;;;;;25.70;13.10;;;;;;;9.03;73.52;99225.80;105404;1257;111202;-73
2023/04/20 05:43:07;;;;;;;27.90;14.70;;;;;;;9.09;73.55;99227.20;105206;1269;104106;-72
2023/04/20 05:45:35;;;;;;;29.60;13.50;;;;;;;9.15;73.64;99224.70;105409;1255;107829;-73
2023/04/20 05:48:04;;;;;;;27.60;11.90;;;;;;;9.24;73.57;99230.69;105232;1257;98155;-73
2023/04/20 05:50:32;;;;;;;25.50;11.90;;;;;;;9.33;73.66;99229.60;105341;1254;101050;-72
2023/04/20 05:53:00;;;;;;;24.00;11.70;;;;;;;9.43;73.61;99230.36;105405;1251;111232;-78
2023/04/20 05:55:27;;;;;;;24.00;13.20;;;;;;;9.53;73.58;99232.90;105121;1268;102316;-73
2023/04/20 05:57:56;;;;;;;30.50;23.50;;;;;;;9.61;73.70;99231.10;105342;1257;107008;-73
2023/04/20 06:00:24;;;;;;;36.20;18.70;;;;;;;9.68;73.57;99236.52;105383;1256;97973;-72
2023/04/20 06:02:53;;;;;;;26.00;13.50;;;;;;;9.77;73.61;99242.80;105530;1252;98714;-73
2023/04/20 06:05:22;;;;;;;24.90;11.40;;;;;;;9.89;73.65;99244.90;105147;1257;111825;-72
2023/04/20 06:07:49;;;;;;;23.60;10.50;;;;;;;9.95;73.59;99245.48;105337;1263;102299;-73
2023/04/20 06:10:17;;;;;;;25.70;11.20;;;;;;;10.04;73.59;99250.42;105477;1255;107406;-73
2023/04/20 06:12:46;;;;;;;25.30;10.10;;;;;;;10.05;73.46;99250.70;105154;1258;97996;-72
2023/04/20 06:15:14;;;;;;;25.20;10.60;;;;;;;10.06;73.59;99251.16;105855;1252;98419;-74
2023/04/20 06:17:43;;;;;;;22.70;10.50;;;;;;;10.10;73.56;99249.64;105302;1251;111088;-72
2023/04/20 06:20:11;;;;;;;22.50;11.10;;;;;;;10.10;73.42;99251.06;105248;1256;101949;-75
2023/04/20 06:22:44;;;;;;;22.80;10.30;;;;;;;10.07;73.38;99248.45;105367;1256;107086;-74
2023/04/20 06:25:12;;;;;;;30.20;19.90;;;;;;;10.07;73.47;99251.65;108710;1251;95871;-73
2023/04/20 06:27:40;;;;;;;26.30;14.40;;;;;;;10.06;73.44;99253.14;107723;1251;99437;-73
2023/04/20 06:30:09;;;;;;;23.40;11.10;;;;;;;10.04;73.44;99255.77;105441;1256;111247;-73
2023/04/20 06:32:38;;;;;;;25.40;12.10;;;;;;;10.01;73.36;99249.73;105585;1251;102857;-74
2023/04/20 06:35:07;;;;;;;25.00;11.20;;;;;;;9.99;73.40;99251.31;105183;1256;106723;-73
2023/04/20 06:37:35;;;;;;;23.20;11.90;;;;;;;9.96;73.42;99246.15;105339;1253;99349;-76
2023/04/20 06:40:06;;;;;;;26.10;13.90;;;;;;;9.90;73.31;99246.04;105299;1253;99179;-72
2023/04/20 06:42:36;;;;;;;34.90;25.50;;;;;;;9.88;73.42;99248.66;105250;1272;110936;-72
2023/04/20 06:45:05;;;;;;;27.40;13.80;;;;;;;9.87;73.43;99251.70;105350;1253;102419;-73
2023/04/20 06:47:34;;;;;;;38.80;24.00;;;;;;;9.89;73.46;99256.91;105367;1267;107638;-73
2023/04/20 06:50:08;;;;;;;34.00;20.30;;;;;;;9.88;73.48;99254.31;105390;1267;98014;-73
2023/04/20 06:52:37;;;;;;;35.10;20.40;;;;;;;9.91;73.56;99256.23;105360;1256;98432;-72
2023/04/20 06:55:06;;;;;;;39.80;20.90;;;;;;;9.97;73.57;99255.30;105230;1256;111259;-71
2023/04/20 06:57:36;;;;;;;31.10;14.60;;;;;;;10.03;73.57;99256.85;105321;1255;101628;-72
2023/04/20 07:00:09;;;;;;;28.00;14.10;;;;;;;10.10;73.56;99257.67;105412;1252;107200;-72
2023/04/20 07:02:55;;;;;;;27.60;13.00;;;;;;;10.18;73.68;99256.59;105244;1252;98901;-72
2023/04/20 07:05:27;;;;;;;22.60;10.20;;;;;;;10.25;73.65;99256.29;105308;1251;98429;-74
2023/04/20 07:07:55;;;;;;;26.50;10.00;;;;;;;10.28;73.57;99259.61;105263;1256;111904;-72
2023/04/20 07:10:23;;;;;;;25.20;11.90;;;;;;;10.33;73.63;99258.41;105562;1256;103834;-73
2023/04/20 07:12:51;;;;;;;22.10;9.60;;;;;;;10.36;73.52;99258.73;105231;1255;107363;-72
2023/04/20 07:15:19;;;;;;;20.80;8.40;;;;;;;10.35;73.39;99259.48;105144;1256;97974;-72
2023/04/20 07:17:47;;;;;;;24.10;10.50;;;;;;;10.35;73.35;99254.53;105326;1251;98052;-74
2023/04/20 07:20:15;;;;;;;20.20;9.10;;;;;;;10.39;73.52;99254.95;105141;1267;111283;-79
2023/04/20 07:22:43;;;;;;;22.00;9.60;;;;;;;10.42;73.52;99254.77;105372;1256;101868;-73
2023/04/20 07:25:11;;;;;;;22.10;9.60;;;;;;;10.45;73.44;99255.84;105133;1256;108985;-74
2023/04/20 07:27:40;;;;;;;26.40;9.70;;;;;;;10.49;73.36;99258.08;105134;1256;98756;-73
2023/04/20 07:30:09;;;;;;;22.70;9.50;;;;;;;10.56;73.49;99261.98;105310;1255;98382;-79
2023/04/20 07:32:38;;;;;;;23.10;9.20;;;;;;;10.67;73.48;99261.94;105312;1255;111178;-74
2023/04/20 07:35:08;;;;;;;22.10;8.10;;;;;;;10.76;73.45;99265.75;105282;1267;101903;-72
2023/04/20 07:37:36;;;;;;;23.30;8.50;;;;;;;10.86;73.51;99270.03;105427;1255;107672;-75
2023/04/20 07:40:05;;;;;;;21.60;8.50;;;;;;;10.94;73.39;99269.45;105341;1251;99176;-71
2023/04/20 07:42:35;;;;;;;19.90;8.40;;;;;;;11.06;73.53;99270.76;105375;1253;98470;-73
2023/04/20 07:45:07;;;;;;;23.30;11.30;;;;;;;11.22;73.48;99270.34;105296;1255;111266;-73
2023/04/20 07:47:36;;;;;;;21.30;9.30;;;;;;;11.29;73.31;99266.23;105394;1269;102005;-73
2023/04/20 07:50:05;;;;;;;19.20;8.20;;;;;;;11.35;73.16;99269.77;105521;1251;107324;-73
2023/04/20 07:52:33;;;;;;;21.10;8.20;;;;;;;11.41;73.29;99271.10;105322;1254;97871;-73
2023/04/20 07:55:01;;;;;;;21.90;8.60;;;;;;;11.50;73.41;99272.37;105158;1255;99241;-73
2023/04/20 07:57:29;;;;;;;22.10;8.80;;;;;;;11.62;73.43;99273.06;105382;1251;110809;-72
2023/04/20 07:59:57;;;;;;;20.70;9.60;;;;;;;11.70;73.16;99271.61;105314;1254;102189;-72
2023/04/20 08:02:25;;;;;;;23.60;9.40;;;;;;;11.71;72.99;99277.09;105328;1256;105738;-72
2023/04/20 08:04:53;;;;;;;19.80;8.30;;;;;;;11.75;73.07;99275.36;105342;1251;99254;-72
2023/04/20 08:07:22;;;;;;;20.40;8.20;;;;;;;11.78;73.15;99274.60;105319;1251;98367;-73
2023/04/20 08:09:51;;;;;;;21.30;8.80;;;;;;;11.86;73.20;99275.59;105352;1251;111259;-71
2023/04/20 08:12:19;;;;;;;20.00;8.30;;;;;;;12.00;73.35;99275.48;105305;1255;102210;-72
2023/04/20 08:14:47;;;;;;;19.20;8.00;;;;;;;12.09;73.26;99274.27;105145;1253;107618;-72
2023/04/20 08:17:15;;;;;;;23.00;8.10;;;;;;;12.20;73.25;99275.77;105130;1256;101542;-81
2023/04/20 08:19:43;;;;;;;25.30;11.30;;;;;;;12.36;73.35;99273.70;105423;1255;97957;-73
2023/04/20 08:22:12;;;;;;;20.10;8.10;;;;;;;12.52;73.21;99278.16;105349;1251;111234;-73
2023/04/20 08:24:41;;;;;;;22.40;8.80;;;;;;;12.65;73.23;99271.27;105399;1255;102622;-73
2023/04/20 08:27:09;;;;;;;22.30;8.20;;;;;;;12.84;73.25;99274.23;105250;1268;108141;-72
2023/04/20 08:29:37;;;;;;;21.50;8.00;;;;;;;12.92;73.03;99271.13;105324;1256;97941;-72
2023/04/20 08:32:11;;;;;;;21.30;7.40;;;;;;;12.97;72.89;99269.98;105378;1253;98417;-72
2023/04/20 08:34:38;;;;;;;21.40;8.30;;;;;;;12.98;72.72;99267.67;105264;1255;109432;-72
2023/04/20 08:37:07;;;;;;;23.10;10.40;;;;;;;12.99;72.83;99271.69;105407;1256;103102;-73
2023/04/20 08:39:36;;;;;;;20.90;8.30;;;;;;;13.05;72.89;99271.51;105272;1256;107577;-73
2023/04/20 08:42:05;;;;;;;20.60;8.10;;;;;;;13.03;72.68;99273.96;105296;1254;99316;-73
2023/04/20 08:44:33;;;;;;;23.20;7.70;;;;;;;12.97;72.49;99272.50;105405;1252;98037;-73
2023/04/20 08:47:04;;;;;;;22.10;9.70;;;;;;;12.91;72.29;99268.31;105153;1256;112513;-74
2023/04/20 08:49:33;;;;;;;22.00;8.50;;;;;;;12.79;72.23;99266.95;105432;1251;101737;-73
2023/04/20 08:52:01;;;;;;;21.60;8.30;;;;;;;12.77;72.43;99264.81;105300;1256;107591;-73
2023/04/20 08:54:29;;;;;;;21.50;8.10;;;;;;;12.82;72.63;99261.23;105360;1254;98007;-73
2023/04/20 08:56:58;;;;;;;19.60;7.50;;;;;;;12.84;72.54;99258.96;105331;1252;98299;-80
2023/04/20 08:59:26;;;;;;;16.10;6.80;;;;;;;12.77;72.42;99258.90;105312;1255;111723;-73
2023/04/20 09:01:54;;;;;;;20.70;7.70;;;;;;;12.67;72.26;99254.93;105321;1256;102160;-73
2023/04/20 09:04:25;;;;;;;20.20;7.70;;;;;;;12.54;72.09;99257.13;105548;1256;107094;-75
2023/04/20 09:06:54;;;;;;;18.60;7.70;;;;;;;12.41;72.09;99256.17;105206;1252;97949;-73
2023/04/20 09:09:26;;;;;;;20.60;7.80;;;;;;;12.35;72.29;99257.20;105444;1253;98354;-73
2023/04/20 09:12:06;;;;;;;16.40;6.30;;;;;;;12.34;72.45;99254.61;105263;1257;110733;-73
2023/04/20 09:14:42;;;;;;;20.00;7.10;;;;;;;12.37;72.46;99254.59;105210;1258;102265;-74
2023/04/20 09:17:13;;;;;;;17.40;6.60;;;;;;;12.39;72.30;99254.60;105260;1253;107419;-72
2023/04/20 09:19:51;;;;;;;21.40;8.10;;;;;;;12.42;72.40;99249.73;105334;1253;99254;-73
2023/04/20 09:22:31;;;;;;;17.80;6.90;;;;;;;12.53;72.48;99248.02;105219;1256;98372;-73
2023/04/20 09:25:10;;;;;;;20.00;7.10;;;;;;;12.71;72.66;99248.19;105170;1256;110764;-72
2023/04/20 09:27:38;;;;;;;21.10;7.10;;;;;;;12.99;72.86;99246.36;105230;1258;102419;-73
2023/04/20 09:30:08;;;;;;;17.20;7.20;;;;;;;13.22;72.85;99244.73;105255;1256;107632;-73
2023/04/20 09:32:36;;;;;;;18.20;7.10;;;;;;;13.40;72.77;99246.84;105340;1253;98514;-71
2023/04/20 09:35:06;;;;;;;17.50;7.20;;;;;;;13.62;72.66;99247.17;105211;1251;98536;-73
2023/04/20 09:37:35;;;;;;;18.90;7.20;;;;;;;13.79;72.61;99245.80;105140;1256;110091;-73
2023/04/20 09:40:04;;;;;;;18.00;7.10;;;;;;;13.94;72.57;99243.66;105287;1253;102985;-73
2023/04/20 09:42:38;;;;;;;20.00;6.80;;;;;;;14.13;72.69;99242.11;105338;1251;107214;-72
2023/04/20 09:45:06;;;;;;;18.80;6.50;;;;;;;14.26;72.53;99241.19;105226;1255;99284;-74
2023/04/20 09:47:36;;;;;;;19.20;6.20;;;;;;;14.32;72.36;99247.08;105333;1256;98858;-72
2023/04/20 09:50:04;;;;;;;20.40;7.00;;;;;;;14.33;72.15;99243.59;105356;1256;111317;-72
2023/04/20 09:52:52;;;;;;;20.40;6.80;;;;;;;14.36;71.87;99240.68;105301;1256;102237;-72
2023/04/20 09:55:23;;;;;;;20.30;6.40;;;;;;;14.42;71.52;99238.75;105351;1264;109428;-74
2023/04/20 09:57:53;;;;;;;21.50;6.20;;;;;;;14.48;71.59;99233.08;105375;1267;98172;-72
2023/04/20 10:00:21;;;;;;;15.60;5.50;;;;;;;14.53;71.66;99229.20;105291;1255;98601;-72
2023/04/20 10:02:50;;;;;;;19.20;5.90;;;;;;;14.65;71.88;99228.74;105487;1252;110149;-73
2023/04/20 10:05:31;;;;;;;19.40;6.30;;;;;;;14.78;71.99;99234.44;105191;1251;102296;-73
2023/04/20 10:08:00;;;;;;;9.00;4.00;;;;;;;15.01;71.72;99224.96;105306;1256;108349;-78
2023/04/20 10:10:29;;;;;;;8.50;3.30;;;;;;;15.21;71.49;99225.90;105233;1267;98858;-73
2023/04/20 10:13:00;;;;;;;11.70;4.00;;;;;;;15.38;71.33;99223.83;105246;1252;98379;-73
2023/04/20 10:15:42;;;;;;;16.60;4.00;;;;;;;15.55;71.21;99211.89;105375;1255;111378;-73
2023/04/20 10:18:17;;;;;;;9.10;3.50;;;;;;;15.76;70.75;99211.61;105264;1251;101857;-74
2023/04/20 10:20:45;;;;;;;10.90;3.40;;;;;;;15.90;70.61;99216.64;105342;1256;107420;-73
2023/04/20 10:23:15;;;;;;;14.60;4.60;;;;;;;15.90;70.01;99213.58;105062;1256;98975;-73
2023/04/20 10:25:59;;;;;;;8.10;3.80;;;;;;;15.94;69.53;99215.86;105366;1266;97887;-72
2023/04/20 10:28:39;;;;;;;8.30;3.10;;;;;;;16.08;69.02;99213.55;105304;1257;111239;-72
2023/04/20 10:31:11;;;;;;;10.30;3.00;;;;;;;16.12;69.66;99209.92;105105;1256;101873;-75
2023/04/20 10:33:51;;;;;;;6.30;2.20;;;;;;;16.04;68.55;99214.21;105200;1256;108178;-72
2023/04/20 10:36:35;;;;;;;10.00;3.00;;;;;;;16.01;68.50;99209.54;105073;1257;98017;-74
2023/04/20 10:39:18;;;;;;;14.00;3.70;;;;;;;16.01;68.18;99210.09;105294;1254;98414;-71
2023/04/20 10:41:54;;;;;;;15.60;3.70;;;;;;;16.04;67.65;99208.20;105332;1255;111247;-71
2023/04/20 10:44:22;;;;;;;13.40;3.90;;;;;;;16.01;66.84;99216.29;105316;1270;101943;-71
2023/04/20 10:46:51;;;;;;;9.60;3.50;;;;;;;15.91;67.51;99207.02;105289;1256;105733;-73
2023/04/20 10:49:26;;;;;;;11.90;3.40;;;;;;;15.83;67.25;99207.21;105294;1254;97920;-73
2023/04/20 10:51:55;;;;;;;9.80;3.30;;;;;;;15.74;67.47;99206.80;105317;1251;97951;-76
2023/04/20 10:54:22;;;;;;;12.00;3.60;;;;;;;15.76;66.71;99199.75;105381;1253;110721;-73
2023/04/20 10:56:52;;;;;;;8.40;3.20;;;;;;;15.95;66.58;99199.00;105405;1256;102231;-73
2023/04/20 10:59:23;;;;;;;7.10;3.00;;;;;;;16.09;65.81;99199.48;105339;1256;107588;-73
2023/04/20 11:01:52;;;;;;;6.80;3.30;;;;;;;16.11;65.02;99198.44;105305;1252;98528;-73
2023/04/20 11:04:31;;;;;;;14.50;3.70;;;;;;;16.07;65.81;99201.25;105364;1251;98446;-73
2023/04/20 11:07:07;;;;;;;14.90;4.10;;;;;;;16.07;65.79;99194.47;105301;1256;111032;-73
2023/04/20 11:09:37;;;;;;;12.70;3.20;;;;;;;16.20;65.44;99192.33;105290;1266;102199;-73
2023/04/20 11:12:07;;;;;;;12.30;3.00;;;;;;;16.45;65.49;99182.50;105296;1265;108078;-71
2023/04/20 11:14:50;;;;;;;6.80;2.70;;;;;;;16.64;65.59;99188.16;105265;1254;97942;-71
2023/04/20 11:17:18;;;;;;;11.80;3.50;;;;;;;16.67;65.36;99191.30;105379;1253;97970;-73
2023/04/20 11:19:46;;;;;;;15.60;3.50;;;;;;;16.71;64.93;99187.40;105311;1256;111230;-73
2023/04/20 11:22:22;;;;;;;11.20;3.20;;;;;;;16.74;64.74;99188.27;105190;1274;101963;-78